LIPL

Ghedi Airport

Ghedi, Italy
TAF LIPL 172000Z 1721/1806 16005KT 9999 SCT050
Issued Valid From Valid To
Nov-17 @ 20:00 UTC
(2 hours ago)
Nov-17 @ 21:00 UTC
(39 minutes ago)
Nov-18 @ 06:00 UTC
(in 8 hours)
Nov-17 @ 21:00 to Nov-18 @ 06:00
TAF LIPL 172000Z 1721/1806 16005KT 9999 SCT050
Wind Visibility Clouds
160° at 5 knots 10,000+ meters
  • Scattered at 5,000' AGL
TAF LIPL 172000Z 1721/1806 16005KT 9999 SCT050
Issued Nov-17 @ 20:00 UTC
(2 hours ago)
Valid From Nov-17 @ 21:00 UTC
(39 minutes ago)
Valid To Nov-18 @ 06:00 UTC
(in 8 hours)
Nov-17 @ 21:00 - Nov-18 @ 06:00
Wind Visibility
160° at 5 knots 10,000+ meters
Clouds
  • Scattered at 5,000' AGL